Berrien Springs, MI

11:20 PM EDT on July 21, 2017 (GMT -0400)
MMICAS | | Change Station
Active Advisory: Severe Thunderstorm Watch

Elev 947 ft 41.95 °N, 85.99 °W | Updated 69 days ago

Rain
Rain
67.0 °F
Feels Like 67.0 °F
N
2.0
Wind Variable Wind from NW

Today
High -- | Low -- °F
--% Chance of Precip.
Yesterday
High -- | Low -- °F
Precip. -- in
Pressure 29.91 in
Visibility 9.0 miles
Clouds Few 6500 ft
Mostly Cloudy 8500 ft
Mostly Cloudy 11000 ft
Dew Point 45.0 °F
Humidity 45%
Rainfall 0.15 in
Snow Depth Not available.
6:28 AM 9:14 PM
Waning Crescent, 2% visible
SPECI KBEH 220311Z AUTO 10004KT 9SM VCTS -RA FEW065 BKN085 BKN110 23/22 A2991 RMK AO2 LTG DSNT SW P0001 T02330217
Pressure 29.91 in
Visibility 9.0 miles
Clouds Few 6500 ft
Mostly Cloudy 8500 ft
Mostly Cloudy 11000 ft
Dew Point 45.0 °F
Humidity 45%
Rainfall 0.15 in
Snow Depth Not available.
6:28 AM 9:14 PM
Waning Crescent, 2% visible
SPECI KBEH 220311Z AUTO 10004KT 9SM VCTS -RA FEW065 BKN085 BKN110 23/22 A2991 RMK AO2 LTG DSNT SW P0001 T02330217

Get Your Daily Forecast Email!

Thanks for signing up!

Be on the lookout for a verification email in your inbox.

You'll start receiving severe weather alerts in your inbox..

×

10-Day Weather Forecast

Almanac

Astronomy

Jul. 21, 2017 Rise Set
Actual Time
Civil Twilight
Nautical Twilight
Astronomical Twilight
Moon
Length of Visible Light
Length of Day
Tomorrow will be .
, % of the Moon is Illuminated

Today's Extremes

State Highs State Lows

Community

WunderPhotos

Category 6

Welcome to Category 6. This is the collective home for Weather Underground's featured writeups by Dr. Jeff Masters (right), Bob Henson (left), Chris Burt, and other regular contributors.

Nearby

Air Quality

  Air Quality AQ Index Pollutant
Not available.

Snow Depth

Station Depth Elevation

Earthquake Activity

City Distance Mag. Time & Date
Minimum magnitude displayed is 2.5.

Coastal Water Temperatures

Place Temperature

Stations

Nearby Weather Stations

Station Location Temp. Windchill Dew Point Humidity Wind Precip. Elev Updated Type
                   

Watches & Warnings

Severe Thunderstorm Watch
Issued: 10:03 PM CDT Jul. 21, 2017 – National Weather Service

Severe Thunderstorm Watch 429 remains in effect until 1200 am CDT

Mi
. Michigan counties included are

Berrien